Time;durP1;ratioP1;P1;durP2;ratioP2;P2;SDS_P1;SDS_P2;PMS_P1;PMS_P2;Temp;Humidity;BMP_temperature;BMP_pressure;BME280_temperature;BME280_humidity;BME280_pressure;Samples;Min_cycle;Max_cycle;Signal;HPM_P1;HPM_P2
2021/06/15 00:00:16;;;;;;;;;;;26.10;99.90;;;;;;1749408;81;20210;-88
2021/06/15 00:02:47;;;;;;;;;;;26.10;99.90;;;;;;1737480;80;20286;-88
2021/06/15 00:05:17;;;;;;;;;;;26.10;99.90;;;;;;1747108;80;20262;-89
2021/06/15 00:07:47;;;;;;;;;;;26.10;99.90;;;;;;1754273;80;20266;-87
2021/06/15 00:10:18;;;;;;;;;;;26.10;99.90;;;;;;1744239;81;20242;-88
2021/06/15 00:12:48;;;;;;;;;;;26.10;99.90;;;;;;1745205;81;20289;-88
2021/06/15 00:15:23;;;;;;;;;;;26.10;99.90;;;;;;1751325;81;20246;-88
2021/06/15 00:17:51;;;;;;;;;;;26.20;99.90;;;;;;1727867;81;20214;-88
2021/06/15 00:20:21;;;;;;;;;;;26.20;99.90;;;;;;1794401;78;20225;-88
2021/06/15 00:22:52;;;;;;;;;;;26.20;99.90;;;;;;1777367;79;20160;-88
2021/06/15 00:25:23;;;;;;;;;;;26.20;99.90;;;;;;1774449;80;20222;-88
2021/06/15 00:27:53;;;;;;;;;;;26.20;99.90;;;;;;1780799;79;20168;-89
2021/06/15 00:30:26;;;;;;;;;;;26.20;99.90;;;;;;1784331;78;20245;-87
2021/06/15 00:33:01;;;;;;;;;;;26.20;99.90;;;;;;1783591;79;20164;-89
2021/06/15 00:35:30;;;;;;;;;;;26.30;99.90;;;;;;1783191;79;20183;-89
2021/06/15 00:38:00;;;;;;;;;;;26.30;99.90;;;;;;1785446;79;20194;-87
2021/06/15 00:40:31;;;;;;;;;;;26.30;99.90;;;;;;1787827;78;20258;-89
2021/06/15 00:43:02;;;;;;;;;;;26.40;99.90;;;;;;1752314;80;20280;-90
2021/06/15 00:45:32;;;;;;;;;;;26.40;99.90;;;;;;1819058;78;20184;-88
2021/06/15 00:48:03;;;;;;;;;;;26.50;99.90;;;;;;1831265;78;20187;-90
2021/06/15 00:50:33;;;;;;;;;;;26.50;99.90;;;;;;1807859;78;20140;-88
2021/06/15 00:53:03;;;;;;;;;;;26.50;99.90;;;;;;1801956;78;20209;-89
2021/06/15 00:55:34;;;;;;;;;;;26.60;99.90;;;;;;1805476;78;20231;-89
2021/06/15 00:58:07;;;;;;;;;;;26.60;99.90;;;;;;1805605;78;20254;-88
2021/06/15 01:00:38;;;;;;;;;;;26.60;99.90;;;;;;1810808;78;20489;-90
2021/06/15 01:03:10;;;;;;;;;;;26.70;99.80;;;;;;1809210;78;20161;-88
2021/06/15 01:05:40;;;;;;;;;;;26.70;99.80;;;;;;1811366;78;20194;-91
2021/06/15 01:08:10;;;;;;;;;;;26.80;99.60;;;;;;1811747;78;20471;-90
2021/06/15 01:10:40;;;;;;;;;;;26.80;99.40;;;;;;1808327;78;20200;-90
2021/06/15 01:13:11;;;;;;;;;;;26.90;99.40;;;;;;1805340;78;20217;-89
2021/06/15 01:15:42;;;;;;;;;;;27.00;99.60;;;;;;1812400;78;20211;-87
2021/06/15 01:18:13;;;;;;;;;;;27.00;99.40;;;;;;1763990;81;20199;-88
2021/06/15 01:20:44;;;;;;;;;;;27.20;98.90;;;;;;1775215;79;20172;-91
2021/06/15 01:23:16;;;;;;;;;;;27.20;98.30;;;;;;1761948;81;20182;-86
2021/06/15 01:25:47;;;;;;;;;;;27.30;98.50;;;;;;1737431;80;20224;-87
2021/06/15 01:28:19;;;;;;;;;;;27.30;98.50;;;;;;1746391;81;20262;-88
2021/06/15 01:30:50;;;;;;;;;;;27.40;98.30;;;;;;1736970;81;20208;-87
2021/06/15 01:33:23;;;;;;;;;;;27.50;98.20;;;;;;1754334;80;20388;-87
2021/06/15 01:36:02;;;;;;;;;;;27.60;98.10;;;;;;1752478;80;20980;-86
2021/06/15 01:38:38;;;;;;;;;;;27.70;97.80;;;;;;1766138;79;20652;-85
2021/06/15 01:41:09;;;;;;;;;;;27.80;97.50;;;;;;1825901;77;20393;-86
2021/06/15 01:43:41;;;;;;;;;;;27.80;96.90;;;;;;1814645;77;20224;-88
2021/06/15 01:46:12;;;;;;;;;;;27.90;96.50;;;;;;1776219;79;20467;-86
2021/06/15 01:48:59;;;;;;;;;;;27.90;96.10;;;;;;1774704;79;20191;-87
2021/06/15 01:51:17;;;;;;;;;;;27.90;96.40;;;;;;1761087;79;20312;-82
2021/06/15 01:53:48;;;;;;;;;;;27.90;96.60;;;;;;1757798;79;20228;-77
2021/06/15 01:56:22;;;;;;;;;;;28.00;96.20;;;;;;1757096;79;20353;-79
2021/06/15 01:58:52;;;;;;;;;;;28.10;96.10;;;;;;1743977;80;20165;-79
2021/06/15 02:01:28;;;;;;;;;;;28.10;96.10;;;;;;1752475;80;20453;-79
2021/06/15 02:03:58;;;;;;;;;;;28.00;96.00;;;;;;1753675;80;20200;-77
2021/06/15 02:06:28;;;;;;;;;;;28.00;96.10;;;;;;1756544;80;20142;-78
2021/06/15 02:09:00;;;;;;;;;;;27.90;96.30;;;;;;1750976;80;20204;-77
2021/06/15 02:11:30;;;;;;;;;;;27.90;96.40;;;;;;1744549;80;20141;-79
2021/06/15 02:14:01;;;;;;;;;;;27.90;96.40;;;;;;1745678;80;20205;-78
2021/06/15 02:16:31;;;;;;;;;;;27.90;96.30;;;;;;1748218;79;20202;-81
2021/06/15 02:19:02;;;;;;;;;;;27.90;96.30;;;;;;1753813;80;20317;-77
2021/06/15 02:21:33;;;;;;;;;;;27.90;96.10;;;;;;1759140;80;20244;-77
2021/06/15 02:24:03;;;;;;;;;;;28.00;96.10;;;;;;1760391;80;20454;-78
2021/06/15 02:26:35;;;;;;;;;;;28.00;96.10;;;;;;1746868;79;20224;-79
2021/06/15 02:29:04;;;;;;;;;;;28.00;96.00;;;;;;1745670;79;20141;-79
2021/06/15 02:31:36;;;;;;;;;;;28.10;95.90;;;;;;1745969;80;20212;-76
2021/06/15 02:34:07;;;;;;;;;;;28.10;95.70;;;;;;1743869;80;20487;-77
2021/06/15 02:36:38;;;;;;;;;;;28.10;95.70;;;;;;1751454;79;20192;-76
2021/06/15 02:39:12;;;;;;;;;;;28.10;96.20;;;;;;1746289;80;20452;-79
2021/06/15 02:41:48;;;;;;;;;;;28.10;96.10;;;;;;1750242;80;20494;-78
2021/06/15 02:44:19;;;;;;;;;;;28.10;96.10;;;;;;1741356;80;20436;-77
2021/06/15 02:46:50;;;;;;;;;;;28.10;95.90;;;;;;1744112;79;20483;-78
2021/06/15 02:49:21;;;;;;;;;;;28.20;96.10;;;;;;1745844;80;20757;-77
2021/06/15 02:51:52;;;;;;;;;;;28.20;96.10;;;;;;1751757;79;20182;-77
2021/06/15 02:54:22;;;;;;;;;;;28.30;95.60;;;;;;1753768;79;20136;-76
2021/06/15 02:56:54;;;;;;;;;;;28.40;95.60;;;;;;1747091;80;20220;-76
2021/06/15 02:59:24;;;;;;;;;;;28.40;95.50;;;;;;1759222;79;20233;-77
2021/06/15 03:01:54;;;;;;;;;;;28.40;95.50;;;;;;1757991;79;20519;-77
2021/06/15 03:04:24;;;;;;;;;;;28.40;95.00;;;;;;1755271;79;20237;-76
2021/06/15 03:06:54;;;;;;;;;;;28.40;95.10;;;;;;1746192;80;20564;-77
2021/06/15 03:09:24;;;;;;;;;;;28.50;95.10;;;;;;1749081;80;20256;-77
2021/06/15 03:11:55;;;;;;;;;;;28.50;95.30;;;;;;1749415;80;20173;-77
2021/06/15 03:14:27;;;;;;;;;;;28.60;95.00;;;;;;1748970;80;20469;-77
2021/06/15 03:16:58;;;;;;;;;;;28.70;94.70;;;;;;1748138;79;20173;-77
2021/06/15 03:19:30;;;;;;;;;;;28.80;94.90;;;;;;1746885;80;20228;-77
2021/06/15 03:22:02;;;;;;;;;;;28.90;94.40;;;;;;1748665;80;20216;-75
2021/06/15 03:24:34;;;;;;;;;;;29.00;93.80;;;;;;1740379;80;20239;-76
2021/06/15 03:27:04;;;;;;;;;;;28.90;93.90;;;;;;1761736;79;20218;-75
2021/06/15 03:29:35;;;;;;;;;;;28.90;94.00;;;;;;1762403;80;20187;-78
2021/06/15 03:32:05;;;;;;;;;;;28.90;94.00;;;;;;1744664;81;20224;-77
2021/06/15 03:34:37;;;;;;;;;;;29.00;94.20;;;;;;1747015;81;20229;-77
2021/06/15 03:37:08;;;;;;;;;;;29.10;94.00;;;;;;1746191;80;20282;-77
2021/06/15 03:39:37;;;;;;;;;;;29.20;93.90;;;;;;1756762;80;20186;-76
2021/06/15 03:42:09;;;;;;;;;;;29.20;93.90;;;;;;1753142;80;20264;-77
2021/06/15 03:44:38;;;;;;;;;;;29.20;93.50;;;;;;1760649;80;20133;-77
2021/06/15 03:47:09;;;;;;;;;;;29.30;93.50;;;;;;1799179;77;20466;-76
2021/06/15 03:49:40;;;;;;;;;;;29.30;93.30;;;;;;1775774;79;20250;-76
2021/06/15 03:52:10;;;;;;;;;;;29.20;93.30;;;;;;1783457;79;20287;-77
2021/06/15 03:54:41;;;;;;;;;;;29.20;93.20;;;;;;1780674;79;20783;-77
2021/06/15 03:57:11;;;;;;;;;;;29.30;93.30;;;;;;1784315;79;20267;-75
2021/06/15 03:59:42;;;;;;;;;;;29.30;93.20;;;;;;1793206;79;20241;-75
2021/06/15 04:02:13;;;;;;;;;;;29.20;93.10;;;;;;1790374;78;20180;-75
2021/06/15 04:04:48;;;;;;;;;;;29.20;93.30;;;;;;1801178;79;20242;-75
2021/06/15 04:07:16;;;;;;;;;;;29.20;93.80;;;;;;1789487;79;20244;-76
2021/06/15 04:09:46;;;;;;;;;;;29.20;93.90;;;;;;1781724;79;20199;-75
2021/06/15 04:12:16;;;;;;;;;;;29.10;93.90;;;;;;1790633;79;20218;-76
2021/06/15 04:14:48;;;;;;;;;;;29.10;93.80;;;;;;1791595;79;20188;-75
2021/06/15 04:17:19;;;;;;;;;;;29.10;93.80;;;;;;1780225;79;20241;-76
2021/06/15 04:19:52;;;;;;;;;;;29.10;93.70;;;;;;1787195;79;20517;-77
2021/06/15 04:22:22;;;;;;;;;;;29.10;93.60;;;;;;1774081;79;20188;-75
2021/06/15 04:24:54;;;;;;;;;;;29.10;93.50;;;;;;1787801;79;20218;-75
2021/06/15 04:27:27;;;;;;;;;;;29.10;93.70;;;;;;1779829;79;20222;-75
2021/06/15 04:30:01;;;;;;;;;;;29.10;93.40;;;;;;1788569;79;20269;-73
2021/06/15 04:32:32;;;;;;;;;;;29.10;93.40;;;;;;1780912;79;20220;-75
2021/06/15 04:35:03;;;;;;;;;;;29.20;93.40;;;;;;1794518;79;20250;-74
2021/06/15 04:37:34;;;;;;;;;;;29.20;93.40;;;;;;1791410;79;20168;-75
2021/06/15 04:40:05;;;;;;;;;;;29.20;93.50;;;;;;1790893;79;20203;-77
2021/06/15 04:42:37;;;;;;;;;;;29.20;93.30;;;;;;1788916;79;20250;-78
2021/06/15 04:45:07;;;;;;;;;;;29.20;93.10;;;;;;1791227;79;20484;-78
2021/06/15 04:47:38;;;;;;;;;;;29.20;93.60;;;;;;1793077;78;20230;-77
2021/06/15 04:50:10;;;;;;;;;;;29.30;92.80;;;;;;1798699;79;20251;-78
2021/06/15 04:52:41;;;;;;;;;;;29.30;92.90;;;;;;1791728;77;20202;-76
2021/06/15 04:55:12;;;;;;;;;;;29.40;92.80;;;;;;1778951;81;20195;-76
2021/06/15 04:57:44;;;;;;;;;;;29.40;92.70;;;;;;1778914;79;20159;-78
2021/06/15 05:00:15;;;;;;;;;;;29.60;92.40;;;;;;1772412;79;20164;-78
2021/06/15 05:02:45;;;;;;;;;;;29.60;91.60;;;;;;1782739;79;20179;-79
2021/06/15 05:05:21;;;;;;;;;;;29.70;91.60;;;;;;1786888;79;20137;-78
2021/06/15 05:07:48;;;;;;;;;;;29.70;91.60;;;;;;1783527;78;20214;-78
2021/06/15 05:10:19;;;;;;;;;;;29.60;91.30;;;;;;1790764;79;20145;-78
2021/06/15 05:12:50;;;;;;;;;;;29.60;91.40;;;;;;1786765;79;20424;-78
2021/06/15 05:15:23;;;;;;;;;;;29.60;91.10;;;;;;1785556;79;20281;-78
2021/06/15 05:17:55;;;;;;;;;;;29.60;91.40;;;;;;1783292;79;20211;-78
2021/06/15 05:20:25;;;;;;;;;;;29.60;91.40;;;;;;1786246;79;20228;-78
2021/06/15 05:22:56;;;;;;;;;;;29.60;91.20;;;;;;1786082;79;20244;-78
2021/06/15 05:25:26;;;;;;;;;;;29.70;91.80;;;;;;1723946;81;20254;-78
2021/06/15 05:27:58;;;;;;;;;;;29.70;91.70;;;;;;1771755;79;20164;-77
2021/06/15 05:30:45;;;;;;;;;;;;;;;;;;;;;
2021/06/15 05:33:24;;;;;;;;;;;29.80;91.70;;;;;;1822462;78;20230;-78
2021/06/15 05:35:57;;;;;;;;;;;29.90;91.60;;;;;;1813123;78;20236;-78
2021/06/15 05:38:26;;;;;;;;;;;29.90;91.40;;;;;;1775838;79;20258;-77
2021/06/15 05:41:08;;;;;;;;;;;30.00;91.40;;;;;;1788874;79;20178;-77
2021/06/15 05:43:39;;;;;;;;;;;30.10;91.00;;;;;;1732542;81;20288;-77
2021/06/15 05:46:13;;;;;;;;;;;30.10;91.30;;;;;;1733705;81;20200;-76
2021/06/15 05:48:46;;;;;;;;;;;30.30;91.50;;;;;;1801033;78;20239;-87
2021/06/15 05:51:23;;;;;;;;;;;30.40;91.00;;;;;;1790008;79;20214;-88
2021/06/15 05:53:49;;;;;;;;;;;30.50;90.20;;;;;;1802602;79;20239;-90
2021/06/15 05:56:25;;;;;;;;;;;30.70;90.60;;;;;;1795605;79;20180;-87
2021/06/15 05:58:55;;;;;;;;;;;30.70;90.20;;;;;;1783016;79;20458;-89
2021/06/15 06:01:29;;;;;;;;;;;30.80;89.30;;;;;;1785421;79;20210;-88
2021/06/15 06:09:04;;;;;;;;;;;30.80;87.90;;;;;;1781754;78;20214;-89
2021/06/15 06:11:36;;;;;;;;;;;30.70;87.90;;;;;;1739245;81;20200;-88
2021/06/15 06:14:05;;;;;;;;;;;30.70;88.10;;;;;;1797018;78;20238;-76
2021/06/15 06:16:36;;;;;;;;;;;30.80;88.80;;;;;;1762115;80;20288;-78
2021/06/15 06:19:08;;;;;;;;;;;30.80;88.80;;;;;;1748648;80;20280;-76
2021/06/15 06:21:38;;;;;;;;;;;30.80;88.30;;;;;;1747387;80;20280;-75
2021/06/15 06:24:12;;;;;;;;;;;30.80;87.40;;;;;;1738212;81;20250;-76
2021/06/15 06:26:42;;;;;;;;;;;30.70;88.40;;;;;;1747693;80;20254;-76
2021/06/15 06:29:18;;;;;;;;;;;30.70;89.20;;;;;;1764924;80;20205;-76
2021/06/15 06:31:44;;;;;;;;;;;30.70;89.20;;;;;;1751651;80;20191;-76
2021/06/15 06:34:15;;;;;;;;;;;30.80;87.90;;;;;;1736953;81;20493;-75
2021/06/15 06:36:44;;;;;;;;;;;30.90;88.20;;;;;;1787916;78;20479;-75
2021/06/15 06:39:14;;;;;;;;;;;30.90;88.50;;;;;;1794988;79;20204;-75
2021/06/15 06:41:44;;;;;;;;;;;31.00;87.80;;;;;;1797580;79;20187;-76
2021/06/15 06:44:14;;;;;;;;;;;31.00;87.00;;;;;;1788777;79;20216;-75
2021/06/15 06:46:44;;;;;;;;;;;31.00;87.40;;;;;;1788966;78;20199;-76
2021/06/15 06:49:14;;;;;;;;;;;31.10;87.50;;;;;;1805169;78;20276;-77
2021/06/15 06:51:44;;;;;;;;;;;31.20;85.90;;;;;;1821960;78;20214;-77
2021/06/15 06:54:15;;;;;;;;;;;31.20;87.10;;;;;;1804895;78;20229;-75
2021/06/15 06:56:44;;;;;;;;;;;31.20;87.30;;;;;;1805717;78;20159;-76
2021/06/15 06:59:15;;;;;;;;;;;31.30;86.90;;;;;;1815289;78;20167;-75
2021/06/15 07:01:45;;;;;;;;;;;31.30;86.20;;;;;;1814526;78;20571;-75
2021/06/15 07:04:15;;;;;;;;;;;31.40;85.80;;;;;;1812087;78;20534;-76
2021/06/15 07:06:47;;;;;;;;;;;31.30;84.40;;;;;;1800377;78;20482;-75
2021/06/15 07:09:17;;;;;;;;;;;31.30;85.40;;;;;;1777385;78;20248;-75
2021/06/15 07:11:46;;;;;;;;;;;31.20;85.90;;;;;;1814461;78;20226;-75
2021/06/15 07:14:21;;;;;;;;;;;31.20;86.50;;;;;;1817521;78;20236;-75
2021/06/15 07:16:47;;;;;;;;;;;31.30;85.50;;;;;;1776119;80;20214;-75
2021/06/15 07:19:17;;;;;;;;;;;31.30;84.00;;;;;;1772068;79;20206;-75
2021/06/15 07:21:47;;;;;;;;;;;31.30;83.60;;;;;;1775681;79;20230;-77
2021/06/15 07:24:16;;;;;;;;;;;31.20;84.00;;;;;;1774606;79;20228;-75
2021/06/15 07:26:46;;;;;;;;;;;31.20;83.90;;;;;;1805058;78;20209;-76
2021/06/15 07:29:16;;;;;;;;;;;31.10;83.70;;;;;;1812018;78;20296;-77
2021/06/15 07:31:46;;;;;;;;;;;31.10;85.20;;;;;;1823344;78;20229;-76
2021/06/15 07:34:15;;;;;;;;;;;31.10;84.90;;;;;;1801689;78;20201;-77
2021/06/15 07:36:45;;;;;;;;;;;31.10;84.40;;;;;;1798068;78;20236;-77
2021/06/15 07:39:15;;;;;;;;;;;31.10;85.10;;;;;;1815708;78;20181;-77
2021/06/15 07:41:44;;;;;;;;;;;31.20;84.80;;;;;;1795387;78;21008;-76
2021/06/15 07:44:14;;;;;;;;;;;31.20;84.40;;;;;;1804478;78;20185;-77
2021/06/15 07:46:47;;;;;;;;;;;31.20;84.30;;;;;;1792667;78;20194;-76
2021/06/15 07:49:17;;;;;;;;;;;31.30;84.60;;;;;;1763473;78;20217;-76
2021/06/15 07:51:47;;;;;;;;;;;31.20;84.80;;;;;;1775688;79;20206;-75
2021/06/15 07:54:18;;;;;;;;;;;31.30;83.70;;;;;;1777061;79;20221;-77
2021/06/15 07:56:48;;;;;;;;;;;31.30;83.50;;;;;;1776666;79;20289;-76
2021/06/15 07:59:18;;;;;;;;;;;31.30;83.70;;;;;;1776563;79;20245;-76
2021/06/15 08:01:48;;;;;;;;;;;31.30;83.90;;;;;;1778660;79;20521;-77
2021/06/15 08:04:19;;;;;;;;;;;31.30;84.70;;;;;;1778429;79;20261;-76
2021/06/15 08:06:49;;;;;;;;;;;31.30;85.00;;;;;;1782892;79;20483;-75
2021/06/15 08:09:18;;;;;;;;;;;31.30;85.00;;;;;;1778272;79;20250;-76
2021/06/15 08:11:51;;;;;;;;;;;31.40;85.10;;;;;;1778925;79;20238;-76
2021/06/15 08:14:21;;;;;;;;;;;31.30;84.40;;;;;;1789241;79;20200;-75
2021/06/15 08:16:51;;;;;;;;;;;31.40;84.90;;;;;;1792617;79;20201;-77
2021/06/15 08:19:22;;;;;;;;;;;31.40;85.10;;;;;;1790049;79;20272;-77
2021/06/15 08:21:55;;;;;;;;;;;31.50;85.60;;;;;;1760657;80;20164;-76
2021/06/15 08:24:25;;;;;;;;;;;31.50;85.10;;;;;;1740514;81;20257;-77
2021/06/15 08:26:54;;;;;;;;;;;31.60;85.00;;;;;;1747561;81;20175;-77
2021/06/15 08:29:24;;;;;;;;;;;31.60;84.50;;;;;;1788357;79;20261;-77
2021/06/15 08:31:54;;;;;;;;;;;31.70;83.90;;;;;;1806588;79;20206;-77
2021/06/15 08:34:23;;;;;;;;;;;31.80;83.60;;;;;;1796925;79;20277;-76
2021/06/15 08:36:56;;;;;;;;;;;31.80;83.70;;;;;;1788316;79;20192;-76
2021/06/15 08:39:26;;;;;;;;;;;31.90;83.70;;;;;;1774528;79;20218;-77
2021/06/15 08:41:58;;;;;;;;;;;31.90;83.00;;;;;;1773519;79;20188;-77
2021/06/15 08:44:27;;;;;;;;;;;31.90;83.70;;;;;;1788710;79;20202;-77
2021/06/15 08:46:57;;;;;;;;;;;31.90;83.20;;;;;;1792081;79;20218;-77
2021/06/15 08:49:30;;;;;;;;;;;31.90;82.00;;;;;;1769837;79;20566;-78
2021/06/15 08:52:00;;;;;;;;;;;31.90;81.20;;;;;;1780883;79;20156;-76
2021/06/15 08:54:31;;;;;;;;;;;31.80;80.40;;;;;;1770297;79;20542;-75
2021/06/15 08:57:02;;;;;;;;;;;31.80;80.20;;;;;;1748285;80;20246;-75
2021/06/15 08:59:32;;;;;;;;;;;31.80;80.90;;;;;;1750363;79;20221;-75
2021/06/15 09:02:05;;;;;;;;;;;31.80;81.30;;;;;;1752964;80;20240;-74
2021/06/15 09:04:35;;;;;;;;;;;31.80;81.60;;;;;;1716143;82;20234;-75
2021/06/15 09:07:05;;;;;;;;;;;31.70;80.10;;;;;;1698906;82;20255;-75
2021/06/15 09:09:36;;;;;;;;;;;31.70;80.60;;;;;;1743069;80;20141;-75
2021/06/15 09:12:06;;;;;;;;;;;31.80;80.60;;;;;;1765633;80;20203;-75
2021/06/15 09:14:40;;;;;;;;;;;31.80;80.20;;;;;;1755706;79;20236;-75
2021/06/15 09:17:11;;;;;;;;;;;31.80;80.80;;;;;;1753315;80;20634;-75
2021/06/15 09:19:43;;;;;;;;;;;31.80;80.00;;;;;;1742991;79;20303;-75
2021/06/15 09:22:17;;;;;;;;;;;31.80;79.10;;;;;;1783792;78;20235;-76
2021/06/15 09:24:50;;;;;;;;;;;31.80;79.20;;;;;;1776785;79;20170;-77
2021/06/15 09:27:21;;;;;;;;;;;31.80;79.00;;;;;;1766117;79;20221;-77
2021/06/15 09:29:51;;;;;;;;;;;31.80;79.50;;;;;;1780097;79;20137;-76
2021/06/15 09:32:23;;;;;;;;;;;31.70;80.00;;;;;;1750790;80;20139;-76
2021/06/15 09:34:55;;;;;;;;;;;31.70;80.30;;;;;;1736469;80;20256;-78
2021/06/15 09:37:26;;;;;;;;;;;31.70;81.40;;;;;;1742239;80;20129;-76
2021/06/15 09:39:58;;;;;;;;;;;31.60;82.00;;;;;;1732352;80;20490;-77
2021/06/15 09:42:32;;;;;;;;;;;31.60;82.30;;;;;;1749680;80;20228;-76
2021/06/15 09:45:00;;;;;;;;;;;31.50;82.30;;;;;;1745577;80;20578;-76
2021/06/15 09:47:33;;;;;;;;;;;31.50;82.80;;;;;;1744875;80;20174;-76
2021/06/15 09:50:05;;;;;;;;;;;31.40;81.80;;;;;;1772451;80;20227;-73
2021/06/15 09:52:34;;;;;;;;;;;31.40;80.80;;;;;;1754897;81;20288;-75
2021/06/15 09:55:06;;;;;;;;;;;31.50;78.70;;;;;;1783237;80;20230;-87
2021/06/15 09:57:39;;;;;;;;;;;31.50;77.90;;;;;;1755441;79;20185;-87
2021/06/15 10:00:09;;;;;;;;;;;31.60;78.30;;;;;;1777499;80;20241;-88
2021/06/15 10:02:40;;;;;;;;;;;31.60;77.70;;;;;;1766927;80;20204;-89
2021/06/15 10:05:11;;;;;;;;;;;31.60;78.00;;;;;;1770903;80;20196;-89
2021/06/15 10:07:41;;;;;;;;;;;31.60;78.10;;;;;;1776917;80;20274;-90
2021/06/15 10:10:12;;;;;;;;;;;31.60;77.40;;;;;;1764829;80;20655;-87
2021/06/15 10:12:41;;;;;;;;;;;31.50;77.50;;;;;;1772999;80;20172;-89
2021/06/15 10:15:11;;;;;;;;;;;31.40;78.10;;;;;;1771908;80;20239;-92
2021/06/15 10:17:43;;;;;;;;;;;31.30;78.40;;;;;;1800310;80;20229;-91
2021/06/15 10:20:14;;;;;;;;;;;31.30;77.90;;;;;;1778131;80;20184;-86
2021/06/15 10:22:44;;;;;;;;;;;31.20;77.90;;;;;;1774967;78;20226;-90
2021/06/15 10:25:14;;;;;;;;;;;31.10;77.90;;;;;;1762468;80;20416;-88
2021/06/15 10:27:45;;;;;;;;;;;31.10;78.80;;;;;;1772064;79;20209;-91
2021/06/15 10:30:15;;;;;;;;;;;31.10;79.00;;;;;;1763715;80;20204;-87
2021/06/15 10:32:46;;;;;;;;;;;31.00;79.70;;;;;;1765718;80;20202;-86
2021/06/15 10:35:22;;;;;;;;;;;31.00;78.50;;;;;;1767394;79;20212;-89
2021/06/15 10:37:48;;;;;;;;;;;30.90;78.30;;;;;;1758866;80;20551;-88
2021/06/15 10:40:19;;;;;;;;;;;30.90;78.00;;;;;;1778904;79;20168;-88
2021/06/15 10:42:49;;;;;;;;;;;30.90;78.10;;;;;;1771331;79;20227;-88
2021/06/15 10:45:21;;;;;;;;;;;30.90;78.50;;;;;;1789323;79;20181;-87
2021/06/15 10:47:51;;;;;;;;;;;30.90;78.70;;;;;;1777350;79;20272;-87
2021/06/15 10:50:23;;;;;;;;;;;30.90;78.20;;;;;;1770160;80;20129;-88
2021/06/15 10:52:56;;;;;;;;;;;30.80;78.60;;;;;;1813261;78;20520;-87
2021/06/15 10:55:26;;;;;;;;;;;30.80;78.60;;;;;;1809311;78;20489;-87
2021/06/15 10:57:55;;;;;;;;;;;30.80;78.80;;;;;;1809043;78;20419;-86
2021/06/15 11:00:26;;;;;;;;;;;30.70;79.20;;;;;;1814757;78;20163;-86
2021/06/15 11:02:57;;;;;;;;;;;30.70;79.20;;;;;;1791562;78;20246;-87
2021/06/15 11:05:28;;;;;;;;;;;30.70;79.30;;;;;;1802796;78;20535;-88
2021/06/15 11:07:59;;;;;;;;;;;30.60;79.20;;;;;;1808370;78;20184;-86
2021/06/15 11:10:30;;;;;;;;;;;30.60;79.80;;;;;;1797897;78;20145;-86
2021/06/15 11:13:00;;;;;;;;;;;30.60;80.20;;;;;;1784535;79;20196;-87
2021/06/15 11:15:30;;;;;;;;;;;30.50;80.00;;;;;;1773539;78;20230;-88
2021/06/15 11:18:01;;;;;;;;;;;30.50;81.10;;;;;;1806681;77;20202;-88
2021/06/15 11:20:32;;;;;;;;;;;30.50;81.20;;;;;;1814497;78;20190;-87
2021/06/15 11:23:04;;;;;;;;;;;30.40;81.20;;;;;;1805986;78;20187;-88
2021/06/15 11:25:36;;;;;;;;;;;30.50;81.50;;;;;;1779631;78;20249;-86
2021/06/15 11:28:07;;;;;;;;;;;30.40;81.70;;;;;;1798762;78;20226;-86
2021/06/15 11:30:37;;;;;;;;;;;30.40;82.90;;;;;;1747356;80;20287;-86
2021/06/15 11:33:44;;;;;;;;;;;30.30;82.10;;;;;;1799436;78;20220;-86
2021/06/15 11:36:05;;;;;;;;;;;30.30;82.50;;;;;;1796529;78;20160;-86
2021/06/15 11:38:34;;;;;;;;;;;30.20;82.80;;;;;;1801526;78;20141;-86
2021/06/15 11:41:04;;;;;;;;;;;30.20;83.20;;;;;;1800528;78;20136;-86
2021/06/15 11:43:35;;;;;;;;;;;30.20;83.40;;;;;;1801560;78;20254;-86
2021/06/15 11:46:05;;;;;;;;;;;30.10;83.50;;;;;;1787326;79;20261;-86
2021/06/15 11:48:36;;;;;;;;;;;30.10;83.50;;;;;;1791481;79;20467;-86
2021/06/15 11:51:08;;;;;;;;;;;30.10;83.80;;;;;;1796162;78;20180;-87
2021/06/15 11:53:40;;;;;;;;;;;30.10;84.00;;;;;;1800517;78;20168;-86
2021/06/15 11:56:11;;;;;;;;;;;30.10;84.20;;;;;;1806950;78;20193;-88
2021/06/15 11:58:47;;;;;;;;;;;30.00;84.20;;;;;;1803628;78;20214;-86
2021/06/15 12:01:14;;;;;;;;;;;30.00;84.40;;;;;;1805230;78;20408;-87
2021/06/15 12:03:48;;;;;;;;;;;30.00;84.60;;;;;;1802399;78;20154;-87
2021/06/15 12:06:20;;;;;;;;;;;30.00;84.80;;;;;;1798151;78;20275;-88
2021/06/15 12:09:08;;;;;;;;;;;30.00;84.70;;;;;;1798528;78;20256;-88
2021/06/15 12:11:38;;;;;;;;;;;29.90;84.90;;;;;;1834509;76;20732;-87
2021/06/15 12:14:08;;;;;;;;;;;29.90;85.10;;;;;;1833085;78;20205;-87
2021/06/15 12:16:38;;;;;;;;;;;29.90;85.20;;;;;;1836260;77;20268;-87
2021/06/15 12:19:11;;;;;;;;;;;29.80;85.60;;;;;;1826444;77;20469;-87
2021/06/15 12:21:43;;;;;;;;;;;29.80;85.60;;;;;;1831651;78;20203;-86
2021/06/15 12:24:13;;;;;;;;;;;29.80;85.70;;;;;;1829119;76;20275;-87
2021/06/15 12:26:46;;;;;;;;;;;29.80;86.20;;;;;;1830403;78;20237;-87
2021/06/15 12:29:15;;;;;;;;;;;29.70;86.10;;;;;;1824082;76;20135;-88
2021/06/15 12:31:46;;;;;;;;;;;29.70;86.30;;;;;;1827689;76;20524;-88
2021/06/15 12:34:18;;;;;;;;;;;29.70;86.60;;;;;;1826124;78;20155;-87
2021/06/15 12:36:48;;;;;;;;;;;29.70;86.80;;;;;;1800037;78;20185;-88
2021/06/15 12:39:20;;;;;;;;;;;29.70;86.90;;;;;;1820330;77;20154;-87
2021/06/15 12:41:51;;;;;;;;;;;29.60;87.00;;;;;;1825911;77;20201;-88
2021/06/15 12:44:25;;;;;;;;;;;29.60;87.40;;;;;;1826089;78;20228;-88
2021/06/15 12:46:56;;;;;;;;;;;29.60;87.40;;;;;;1828349;76;20197;-87
2021/06/15 12:49:26;;;;;;;;;;;29.60;87.70;;;;;;1831903;77;20528;-88
2021/06/15 12:51:56;;;;;;;;;;;29.60;87.90;;;;;;1840693;77;20197;-88
2021/06/15 12:54:26;;;;;;;;;;;29.60;88.30;;;;;;1830731;77;20230;-88
2021/06/15 12:56:57;;;;;;;;;;;29.60;88.40;;;;;;1835508;77;20257;-87
2021/06/15 12:59:26;;;;;;;;;;;29.60;88.80;;;;;;1835434;76;20198;-87
2021/06/15 13:01:57;;;;;;;;;;;29.50;88.90;;;;;;1831627;77;20307;-88
2021/06/15 13:04:28;;;;;;;;;;;29.50;89.10;;;;;;1823157;78;20178;-87
2021/06/15 13:06:59;;;;;;;;;;;29.50;89.30;;;;;;1837843;76;20155;-88
2021/06/15 13:09:30;;;;;;;;;;;29.50;89.40;;;;;;1827995;76;20218;-87
2021/06/15 13:12:02;;;;;;;;;;;29.50;89.50;;;;;;1843801;78;20194;-85
2021/06/15 13:14:42;;;;;;;;;;;29.50;89.70;;;;;;1835272;77;20556;-86
2021/06/15 13:17:11;;;;;;;;;;;29.40;89.90;;;;;;1788121;78;20216;-86
2021/06/15 13:19:43;;;;;;;;;;;29.40;90.00;;;;;;1771083;79;20186;-85
2021/06/15 13:25:13;;;;;;;;;;;29.40;90.00;;;;;;1812836;77;20294;-90
2021/06/15 13:27:46;;;;;;;;;;;29.40;89.90;;;;;;1863438;76;20190;-89
2021/06/15 13:30:16;;;;;;;;;;;29.40;90.00;;;;;;1867722;76;20199;-90
2021/06/15 13:32:46;;;;;;;;;;;29.40;89.70;;;;;;1861065;76;20122;-90
2021/06/15 13:35:17;;;;;;;;;;;29.40;89.70;;;;;;1852888;76;20189;-90
2021/06/15 13:37:48;;;;;;;;;;;29.40;89.70;;;;;;1847722;76;20198;-91
2021/06/15 13:40:19;;;;;;;;;;;29.40;89.60;;;;;;1830927;77;20190;-90
2021/06/15 13:42:49;;;;;;;;;;;29.30;89.40;;;;;;1833843;76;20171;-91
2021/06/15 13:45:20;;;;;;;;;;;29.30;89.50;;;;;;1833887;77;20216;-89
2021/06/15 13:47:50;;;;;;;;;;;29.30;89.70;;;;;;1827322;76;20238;-90
2021/06/15 13:50:21;;;;;;;;;;;29.30;89.70;;;;;;1838455;76;20197;-90
2021/06/15 13:52:52;;;;;;;;;;;29.30;89.70;;;;;;1849350;76;20144;-91
2021/06/15 13:55:22;;;;;;;;;;;29.30;89.80;;;;;;1864543;76;20161;-90
2021/06/15 13:58:06;;;;;;;;;;;29.30;89.80;;;;;;1833634;76;20192;-88
2021/06/15 14:00:33;;;;;;;;;;;29.30;89.90;;;;;;1781938;79;20289;-90
2021/06/15 14:03:02;;;;;;;;;;;29.30;90.00;;;;;;1828820;77;20183;-88
2021/06/15 14:05:32;;;;;;;;;;;29.30;90.10;;;;;;1821843;77;20218;-89
2021/06/15 14:08:03;;;;;;;;;;;29.30;90.10;;;;;;1837961;76;20476;-89
2021/06/15 14:10:33;;;;;;;;;;;29.20;90.10;;;;;;1827385;77;20187;-89
2021/06/15 14:13:03;;;;;;;;;;;29.20;90.20;;;;;;1825250;77;20170;-89
2021/06/15 14:15:34;;;;;;;;;;;29.20;90.20;;;;;;1832767;76;20249;-88
2021/06/15 14:18:04;;;;;;;;;;;29.20;90.30;;;;;;1845455;76;20210;-89
2021/06/15 14:20:34;;;;;;;;;;;29.20;90.30;;;;;;1843593;76;20440;-89
2021/06/15 14:23:04;;;;;;;;;;;29.20;90.30;;;;;;1797683;78;20265;-89
2021/06/15 14:25:34;;;;;;;;;;;29.20;90.40;;;;;;1788222;79;20218;-90
2021/06/15 14:28:05;;;;;;;;;;;29.10;90.40;;;;;;1787618;79;20206;-89
2021/06/15 14:30:37;;;;;;;;;;;29.10;90.40;;;;;;1787772;79;20174;-89
2021/06/15 14:33:06;;;;;;;;;;;29.10;90.60;;;;;;1787098;79;20171;-90
2021/06/15 14:35:36;;;;;;;;;;;29.10;90.60;;;;;;1789364;79;20206;-89
2021/06/15 14:38:06;;;;;;;;;;;29.10;90.70;;;;;;1784761;78;20491;-90
2021/06/15 14:40:39;;;;;;;;;;;29.00;90.70;;;;;;1790363;79;20170;-90
2021/06/15 14:43:08;;;;;;;;;;;29.00;90.70;;;;;;1791841;79;20206;-90
2021/06/15 14:45:39;;;;;;;;;;;29.00;90.70;;;;;;1787949;79;20225;-89
2021/06/15 14:48:09;;;;;;;;;;;29.00;90.80;;;;;;1789013;78;20166;-90